createdAt,value
2018-09-14T00:00:35.935Z,95002.08
2018-09-14T00:03:06.240Z,95005.60
2018-09-14T00:05:35.097Z,95004.14
2018-09-14T00:08:04.774Z,95003.63
2018-09-14T00:10:35.287Z,95002.75
2018-09-14T00:13:04.167Z,95000.06
2018-09-14T00:15:32.958Z,94994.27
2018-09-14T00:18:01.754Z,94992.80
2018-09-14T00:20:30.690Z,94989.94
2018-09-14T00:22:59.561Z,94985.52
2018-09-14T00:25:28.446Z,94990.59
2018-09-14T00:27:57.394Z,94993.78
2018-09-14T00:30:26.172Z,94993.78
2018-09-14T00:32:55.054Z,94998.23
2018-09-14T00:35:23.860Z,94994.04
2018-09-14T00:37:52.706Z,94994.88
2018-09-14T00:40:21.495Z,94995.88
2018-09-14T00:42:50.386Z,94993.49
2018-09-14T00:45:19.240Z,94999.70
2018-09-14T00:47:48.094Z,94991.10
2018-09-14T00:50:16.887Z,94991.39
2018-09-14T00:52:45.638Z,94983.84
2018-09-14T00:55:14.594Z,94982.41
2018-09-14T00:57:43.488Z,94983.88
2018-09-14T01:00:12.307Z,94978.77
2018-09-14T01:02:41.161Z,94978.41
2018-09-14T01:05:10.028Z,94976.80
2018-09-14T01:07:38.842Z,94972.76
2018-09-14T01:10:07.683Z,94976.69
2018-09-14T01:12:36.605Z,94973.27
2018-09-14T01:15:05.860Z,94976.39
2018-09-14T01:17:34.693Z,94976.47
2018-09-14T01:20:03.754Z,94971.06
2018-09-14T01:22:32.547Z,94973.19
2018-09-14T01:25:01.370Z,94970.39
2018-09-14T01:27:30.224Z,94972.88
2018-09-14T01:29:59.038Z,94977.87
2018-09-14T01:32:27.880Z,94978.99
2018-09-14T01:34:56.651Z,94986.23
2018-09-14T01:37:25.496Z,94973.93
2018-09-14T01:39:54.305Z,94973.34
2018-09-14T01:42:23.120Z,94979.22
2018-09-14T01:44:52.051Z,94978.19
2018-09-14T01:47:20.872Z,94982.16
2018-09-14T01:49:49.647Z,94979.95
2018-09-14T01:52:18.563Z,94979.73
2018-09-14T01:54:47.323Z,94973.79
2018-09-14T01:57:16.208Z,94979.70
2018-09-14T01:59:45.047Z,94979.30
2018-09-14T02:02:13.808Z,94972.32
2018-09-14T02:04:42.682Z,94974.92
2018-09-14T02:07:11.442Z,94978.81
2018-09-14T02:09:40.397Z,94972.72
2018-09-14T02:12:09.359Z,94970.48
2018-09-14T02:14:38.145Z,94969.86
2018-09-14T02:17:06.981Z,94972.20
2018-09-14T02:19:36.055Z,94969.12
2018-09-14T02:22:04.999Z,94967.28
2018-09-14T02:24:33.813Z,94978.61
2018-09-14T02:27:03.069Z,94974.28
2018-09-14T02:29:32.057Z,94970.98
2018-09-14T02:32:00.941Z,94970.93
2018-09-14T02:34:29.726Z,94969.46
2018-09-14T02:36:58.587Z,94966.40
2018-09-14T02:39:27.436Z,94967.50
2018-09-14T02:41:56.232Z,94964.34
2018-09-14T02:44:25.110Z,94962.52
2018-09-14T02:46:54.120Z,94957.23
2018-09-14T02:49:22.916Z,94955.95
2018-09-14T02:51:51.710Z,94952.00
2018-09-14T02:54:20.547Z,94953.83
2018-09-14T02:56:49.347Z,94951.05
2018-09-14T02:59:18.192Z,94954.52
2018-09-14T03:01:46.958Z,94959.80
2018-09-14T03:04:15.727Z,94964.56
2018-09-14T03:06:44.604Z,94973.22
2018-09-14T03:09:13.502Z,94973.22
2018-09-14T03:11:42.400Z,94975.44
2018-09-14T03:14:11.152Z,94974.55
2018-09-14T03:16:39.970Z,94977.41
2018-09-14T03:19:08.867Z,94980.14
2018-09-14T03:21:38.299Z,94979.13
2018-09-14T03:24:07.361Z,94981.34
2018-09-14T03:26:36.185Z,94982.66
2018-09-14T03:29:05.141Z,94993.19
2018-09-14T03:31:34.134Z,94988.45
2018-09-14T03:34:02.935Z,94988.50
2018-09-14T03:36:31.803Z,94986.89
2018-09-14T03:39:00.604Z,94994.81
2018-09-14T03:41:29.380Z,94988.89
2018-09-14T03:43:58.143Z,94989.40
2018-09-14T03:46:26.960Z,94990.20
2018-09-14T03:48:55.779Z,94986.08
2018-09-14T03:51:24.596Z,94992.47
2018-09-14T03:53:53.402Z,94991.73
2018-09-14T03:56:22.183Z,94989.53
2018-09-14T03:58:51.275Z,94989.83
2018-09-14T04:01:20.147Z,94990.63
2018-09-14T04:03:49.179Z,94995.61
2018-09-14T04:06:18.056Z,94994.08
2018-09-14T04:08:46.995Z,94988.89
2018-09-14T04:11:15.781Z,94991.15
2018-09-14T04:13:44.550Z,94994.67
2018-09-14T04:16:13.350Z,94992.47
2018-09-14T04:18:42.200Z,94995.55
2018-09-14T04:21:11.037Z,95001.25
2018-09-14T04:23:39.857Z,95012.68
2018-09-14T04:26:08.978Z,95012.46
2018-09-14T04:28:37.969Z,95016.25
2018-09-14T04:31:06.805Z,95014.64
2018-09-14T04:33:35.591Z,95011.91
2018-09-14T04:36:04.383Z,95012.05
2018-09-14T04:38:33.151Z,95012.36
2018-09-14T04:41:02.177Z,95017.03
2018-09-14T04:43:30.982Z,95014.94
2018-09-14T04:45:59.779Z,95013.44
2018-09-14T04:48:28.585Z,95014.22
2018-09-14T04:50:57.623Z,95020.23
2018-09-14T04:53:26.576Z,95015.39
2018-09-14T04:55:57.455Z,95011.64
2018-09-14T04:58:26.264Z,95014.43
2018-09-14T05:00:55.104Z,95013.22
2018-09-14T05:03:24.091Z,95012.59
2018-09-14T05:05:53.093Z,95008.28
2018-09-14T05:08:21.876Z,95014.23
2018-09-14T05:10:50.829Z,95009.11
2018-09-14T05:13:19.656Z,95005.14
2018-09-14T05:15:48.585Z,95008.70
2018-09-14T05:18:17.543Z,95008.48
2018-09-14T05:20:46.658Z,95009.18
2018-09-14T05:23:15.732Z,95003.41
2018-09-14T05:25:44.648Z,94995.25
2018-09-14T05:28:13.535Z,95003.03
2018-09-14T05:30:42.530Z,95014.34
2018-09-14T05:33:11.320Z,95005.83
2018-09-14T05:35:40.172Z,95004.18
2018-09-14T05:38:09.035Z,95008.30
2018-09-14T05:40:38.090Z,95002.20
2018-09-14T05:43:07.175Z,95008.37
2018-09-14T05:45:36.095Z,95003.89
2018-09-14T05:48:05.279Z,95006.76
2018-09-14T05:50:34.100Z,95009.30
2018-09-14T05:53:02.889Z,95010.33
2018-09-14T05:55:31.765Z,95009.70
2018-09-14T05:58:01.010Z,95011.13
2018-09-14T06:00:30.130Z,95012.29
2018-09-14T06:02:58.992Z,95017.97
2018-09-14T06:05:27.798Z,95018.66
2018-09-14T06:07:56.571Z,95017.47
2018-09-14T06:10:25.538Z,95015.63
2018-09-14T06:12:54.432Z,95023.37
2018-09-14T06:15:23.230Z,95019.34
2018-09-14T06:17:52.103Z,95025.67
2018-09-14T06:20:20.919Z,95023.63
2018-09-14T06:22:49.789Z,95025.41
2018-09-14T06:25:18.808Z,95031.50
2018-09-14T06:27:47.719Z,95028.03
2018-09-14T06:30:20.461Z,95031.13
2018-09-14T06:32:49.526Z,95027.22
2018-09-14T06:35:18.344Z,95025.87
2018-09-14T06:37:47.240Z,95034.39
2018-09-14T06:40:16.084Z,95033.02
2018-09-14T06:42:44.949Z,95040.13
2018-09-14T06:45:13.783Z,95032.89
2018-09-14T06:47:42.816Z,95032.48
2018-09-14T06:50:11.588Z,95034.55
2018-09-14T06:52:40.580Z,95033.17
2018-09-14T06:55:09.446Z,95028.87
2018-09-14T06:57:38.230Z,95033.84
2018-09-14T07:00:09.904Z,95032.56
2018-09-14T07:02:38.856Z,95028.55
2018-09-14T07:05:07.794Z,95036.91
2018-09-14T07:07:36.656Z,95038.06
2018-09-14T07:10:05.715Z,95034.20
2018-09-14T07:12:34.683Z,95031.48
2018-09-14T07:15:03.838Z,95029.23
2018-09-14T07:17:32.625Z,95027.08
2018-09-14T07:20:01.424Z,95030.96
2018-09-14T07:22:30.471Z,95027.83
2018-09-14T07:24:59.387Z,95027.88
2018-09-14T07:27:28.154Z,95033.29
2018-09-14T07:29:57.040Z,95029.74
2018-09-14T07:32:25.848Z,95031.34
2018-09-14T07:34:54.693Z,95028.53
2018-09-14T07:37:23.495Z,95025.59
2018-09-14T07:39:52.385Z,95025.59
2018-09-14T07:42:21.303Z,95025.72
2018-09-14T07:44:50.424Z,95026.33
2018-09-14T07:47:19.243Z,95026.17
2018-09-14T07:49:48.259Z,95024.11
2018-09-14T07:52:17.047Z,95026.36
2018-09-14T07:54:45.950Z,95022.16
2018-09-14T07:57:14.731Z,95025.73
2018-09-14T07:59:43.592Z,95026.89
2018-09-14T08:02:12.548Z,95021.95
2018-09-14T08:04:41.556Z,95017.22
2018-09-14T08:07:10.427Z,95022.33
2018-09-14T08:09:39.236Z,95022.63
2018-09-14T08:12:08.125Z,95018.70
2018-09-14T08:14:36.939Z,95016.06
2018-09-14T08:17:06.347Z,95019.06
2018-09-14T08:19:35.111Z,95022.42
2018-09-14T08:22:04.334Z,95022.22
2018-09-14T08:24:33.454Z,95027.37
2018-09-14T08:27:02.456Z,95020.52
2018-09-14T08:29:31.383Z,95020.82
2018-09-14T08:32:00.226Z,95023.50
2018-09-14T08:34:29.130Z,95020.32
2018-09-14T08:36:57.963Z,95025.17
2018-09-14T08:39:26.802Z,95020.38
2018-09-14T08:41:55.672Z,95026.88
2018-09-14T08:44:24.484Z,95012.76
2018-09-14T08:46:53.422Z,95014.67
2018-09-14T08:49:22.267Z,95016.53
2018-09-14T08:51:51.059Z,95016.53
2018-09-14T08:54:19.843Z,95014.13
2018-09-14T08:56:48.831Z,95014.97
2018-09-14T08:59:17.621Z,95008.03
2018-09-14T09:01:46.514Z,95010.47
2018-09-14T09:04:15.366Z,95005.17
2018-09-14T09:06:44.254Z,95007.06
2018-09-14T09:09:13.968Z,95005.72
2018-09-14T09:11:43.234Z,95006.00
2018-09-14T09:14:12.779Z,95005.73
2018-09-14T09:16:41.750Z,95007.61
2018-09-14T09:19:10.772Z,95005.20
2018-09-14T09:21:39.628Z,95008.43
2018-09-14T09:24:08.465Z,95004.16
2018-09-14T09:26:37.322Z,95006.29
2018-09-14T09:29:06.368Z,95009.80
2018-09-14T09:31:35.222Z,95002.89
2018-09-14T09:34:04.199Z,95002.61
2018-09-14T09:36:32.986Z,95000.75
2018-09-14T09:39:01.886Z,94997.81
2018-09-14T09:41:30.770Z,95000.47
2018-09-14T09:43:59.857Z,94992.74
2018-09-14T09:46:28.931Z,95001.26
2018-09-14T09:48:57.837Z,94998.59
2018-09-14T09:51:26.972Z,94997.51
2018-09-14T09:53:55.803Z,94990.30
2018-09-14T09:56:24.649Z,94989.52
2018-09-14T09:58:53.569Z,94987.38
2018-09-14T10:01:27.775Z,94980.16
2018-09-14T10:04:01.793Z,94986.80
2018-09-14T10:06:30.862Z,94985.96
2018-09-14T10:08:59.735Z,94988.08
2018-09-14T10:11:28.539Z,94977.11
2018-09-14T10:13:57.465Z,94972.79
2018-09-14T10:16:26.346Z,94975.47
2018-09-14T10:18:55.295Z,94974.70
2018-09-14T10:21:24.157Z,94966.67
2018-09-14T10:23:53.170Z,94965.30
2018-09-14T10:26:22.164Z,94966.33
2018-09-14T10:28:51.018Z,94956.16
2018-09-14T10:31:19.810Z,94959.64
2018-09-14T10:33:48.743Z,94957.77
2018-09-14T10:36:17.826Z,94954.78
2018-09-14T10:38:46.636Z,94955.83
2018-09-14T10:41:15.459Z,94952.62
2018-09-14T10:43:44.337Z,94952.55
2018-09-14T10:46:13.354Z,94954.60
2018-09-14T10:48:42.190Z,94950.03
2018-09-14T10:51:11.188Z,94955.06
2018-09-14T10:53:40.024Z,94957.73
2018-09-14T10:56:08.932Z,94954.20
2018-09-14T10:58:42.616Z,94947.22
2018-09-14T11:01:13.610Z,94945.84
2018-09-14T11:03:42.675Z,94947.16
2018-09-14T11:06:11.915Z,94941.55
2018-09-14T11:08:40.686Z,94944.75
2018-09-14T11:11:09.563Z,94935.05
2018-09-14T11:13:38.822Z,94931.54
2018-09-14T11:16:07.638Z,94933.92
2018-09-14T11:18:36.500Z,94927.39
2018-09-14T11:21:05.435Z,94924.83
2018-09-14T11:23:34.304Z,94917.37
2018-09-14T11:26:03.256Z,94922.30
2018-09-14T11:28:32.109Z,94918.55
2018-09-14T11:31:00.971Z,94912.81
2018-09-14T11:33:29.880Z,94913.27
2018-09-14T11:35:58.814Z,94913.03
2018-09-14T11:38:27.689Z,94916.23
2018-09-14T11:40:56.734Z,94911.85
2018-09-14T11:43:25.585Z,94915.27
2018-09-14T11:45:54.597Z,94904.43
2018-09-14T11:48:23.683Z,94907.28
2018-09-14T11:50:52.489Z,94903.57
2018-09-14T11:53:22.306Z,94909.92
2018-09-14T11:55:51.171Z,94901.87
2018-09-14T11:58:20.069Z,94901.01
2018-09-14T12:00:49.400Z,94898.46
2018-09-14T12:03:18.217Z,94896.78
2018-09-14T12:05:47.170Z,94890.83
2018-09-14T12:08:16.110Z,94895.63
2018-09-14T12:10:44.946Z,94895.47
2018-09-14T12:13:14.178Z,94891.53
2018-09-14T12:15:43.081Z,94895.59
2018-09-14T12:18:11.961Z,94891.79
2018-09-14T12:20:40.907Z,94886.56
2018-09-14T12:23:09.731Z,94890.30
2018-09-14T12:25:39.234Z,94889.79
2018-09-14T12:28:09.428Z,94891.67
2018-09-14T12:30:38.580Z,94885.45
2018-09-14T12:33:08.106Z,94886.42
2018-09-14T12:35:37.089Z,94886.01
2018-09-14T12:38:06.863Z,94885.47
2018-09-14T12:40:35.737Z,94883.20
2018-09-14T12:43:05.139Z,94881.25
2018-09-14T12:45:34.117Z,94878.66
2018-09-14T12:48:03.034Z,94874.20
2018-09-14T12:50:32.161Z,94874.50
2018-09-14T12:53:01.072Z,94875.61
2018-09-14T12:55:29.976Z,94879.30
2018-09-14T12:57:58.841Z,94881.50
2018-09-14T13:00:27.838Z,94879.87
2018-09-14T13:02:56.695Z,94883.91
2018-09-14T13:05:25.487Z,94875.65
2018-09-14T13:07:54.353Z,94881.75
2018-09-14T13:10:23.222Z,94876.47
2018-09-14T13:12:52.036Z,94886.94
2018-09-14T13:15:20.999Z,94889.88
2018-09-14T13:17:49.843Z,94888.30
2018-09-14T13:20:18.660Z,94882.90
2018-09-14T13:22:47.449Z,94883.88
2018-09-14T13:25:16.544Z,94882.97
2018-09-14T13:27:45.447Z,94880.22
2018-09-14T13:30:17.035Z,94880.70
2018-09-14T13:32:51.142Z,94884.42
2018-09-14T13:35:21.758Z,94882.05
2018-09-14T13:37:50.833Z,94879.36
2018-09-14T13:40:20.375Z,94874.39
2018-09-14T13:42:49.359Z,94874.70
2018-09-14T13:45:18.560Z,94871.77
2018-09-14T13:47:47.550Z,94874.45
2018-09-14T13:50:16.439Z,94865.28
2018-09-14T13:52:45.317Z,94863.50
2018-09-14T13:55:14.216Z,94868.90
2018-09-14T13:57:43.187Z,94868.90
2018-09-14T14:00:14.510Z,94870.92
2018-09-14T14:02:43.498Z,94872.38
2018-09-14T14:05:12.269Z,94868.42
2018-09-14T14:07:41.133Z,94870.05
2018-09-14T14:10:09.988Z,94871.27
2018-09-14T14:12:38.812Z,94872.33
2018-09-14T14:15:08.071Z,94867.62
2018-09-14T14:17:37.062Z,94871.27
2018-09-14T14:20:06.024Z,94869.55
2018-09-14T14:22:34.943Z,94863.27
2018-09-14T14:25:03.891Z,94867.36
2018-09-14T14:27:32.803Z,94865.77
2018-09-14T14:30:01.699Z,94861.70
2018-09-14T14:32:30.573Z,94862.50
2018-09-14T14:34:59.507Z,94865.70
2018-09-14T14:37:28.331Z,94860.58
2018-09-14T14:39:57.328Z,94866.20
2018-09-14T14:42:26.228Z,94869.55
2018-09-14T14:44:55.180Z,94868.30
2018-09-14T14:47:24.081Z,94868.14
2018-09-14T14:49:52.945Z,94870.98
2018-09-14T14:52:21.772Z,94874.21
2018-09-14T14:54:50.578Z,94872.64
2018-09-14T14:57:19.485Z,94873.55
2018-09-14T14:59:48.337Z,94874.72
2018-09-14T15:02:17.698Z,94876.76
2018-09-14T15:04:46.507Z,94878.96
2018-09-14T15:07:15.311Z,94880.14
2018-09-14T15:09:44.265Z,94886.70
2018-09-14T15:12:13.139Z,94884.50
2018-09-14T15:14:41.972Z,94881.95
2018-09-14T15:17:10.834Z,94885.20
2018-09-14T15:19:39.663Z,94882.83
2018-09-14T15:22:08.599Z,94885.56
2018-09-14T15:24:37.471Z,94881.05
2018-09-14T15:27:06.321Z,94883.47
2018-09-14T15:29:35.228Z,94885.61
2018-09-14T15:32:04.098Z,94888.63
2018-09-14T15:34:32.996Z,94887.59
2018-09-14T15:37:02.047Z,94891.10
2018-09-14T15:39:30.990Z,94891.97
2018-09-14T15:41:59.811Z,94895.83
2018-09-14T15:44:28.723Z,94897.45
2018-09-14T15:46:58.436Z,94899.94
2018-09-14T15:49:27.374Z,94899.48
2018-09-14T15:51:56.342Z,94904.91
2018-09-14T15:54:25.194Z,94904.16
2018-09-14T15:56:54.076Z,94908.39
2018-09-14T15:59:22.914Z,94910.31
2018-09-14T16:01:51.767Z,94904.71
2018-09-14T16:04:20.972Z,94915.19
2018-09-14T16:06:50.117Z,94907.73
2018-09-14T16:09:19.070Z,94909.95
2018-09-14T16:11:47.931Z,94914.88
2018-09-14T16:14:16.943Z,94914.92
2018-09-14T16:16:45.767Z,94920.38
2018-09-14T16:19:14.550Z,94921.52
2018-09-14T16:21:43.417Z,94917.55
2018-09-14T16:24:12.339Z,94919.52
2018-09-14T16:26:41.419Z,94919.80
2018-09-14T16:29:10.326Z,94934.85
2018-09-14T16:31:39.286Z,94934.64
2018-09-14T16:34:08.461Z,94938.44
2018-09-14T16:36:37.375Z,94937.64
2018-09-14T16:39:08.620Z,94942.77
2018-09-14T16:41:37.546Z,94947.64
2018-09-14T16:44:06.391Z,94949.28
2018-09-14T16:46:35.314Z,94944.77
2018-09-14T16:49:04.142Z,94945.84
2018-09-14T16:51:33.132Z,94949.32
2018-09-14T16:54:02.329Z,94947.75
2018-09-14T16:56:31.190Z,94953.63
2018-09-14T16:59:00.045Z,94951.52
2018-09-14T17:01:28.904Z,94954.20
2018-09-14T17:04:04.178Z,94955.02
2018-09-14T17:06:33.052Z,94961.17
2018-09-14T17:09:02.040Z,94955.55
2018-09-14T17:11:30.930Z,94963.06
2018-09-14T17:13:59.919Z,94969.74
2018-09-14T17:16:28.804Z,94971.09
2018-09-14T17:18:57.643Z,94980.98
2018-09-14T17:21:26.563Z,94977.23
2018-09-14T17:23:55.802Z,94980.39
2018-09-14T17:26:24.689Z,94984.66
2018-09-14T17:28:53.513Z,94982.52
2018-09-14T17:31:22.551Z,94989.98
2018-09-14T17:33:51.425Z,94994.48
2018-09-14T17:36:20.365Z,94999.02
2018-09-14T17:38:49.342Z,94994.45
2018-09-14T17:41:18.335Z,94993.90
2018-09-14T17:43:47.311Z,95003.23
2018-09-14T17:46:16.664Z,95004.80
2018-09-14T17:48:45.657Z,95009.55
2018-09-14T17:51:14.479Z,95007.91
2018-09-14T17:53:43.295Z,95014.52
2018-09-14T17:56:12.447Z,95017.15
2018-09-14T17:58:41.922Z,95019.50
2018-09-14T18:01:10.940Z,95018.16
2018-09-14T18:03:39.851Z,95023.21
2018-09-14T18:06:08.678Z,95030.15
2018-09-14T18:08:37.499Z,95026.70
2018-09-14T18:11:06.344Z,95026.17
2018-09-14T18:13:35.224Z,95028.56
2018-09-14T18:16:04.192Z,95026.67
2018-09-14T18:18:33.007Z,95024.27
2018-09-14T18:21:01.875Z,95030.91
2018-09-14T18:23:30.733Z,95033.27
2018-09-14T18:25:59.595Z,95035.91
2018-09-14T18:28:28.413Z,95038.00
2018-09-14T18:30:57.254Z,95043.61
2018-09-14T18:33:26.112Z,95038.76
2018-09-14T18:35:55.044Z,95043.23
2018-09-14T18:38:24.083Z,95033.58
2018-09-14T18:40:53.380Z,95038.34
2018-09-14T18:43:22.166Z,95039.13
2018-09-14T18:45:50.984Z,95038.32
2018-09-14T18:48:20.226Z,95038.79
2018-09-14T18:50:49.078Z,95045.78
2018-09-14T18:53:17.982Z,95043.65
2018-09-14T18:55:46.880Z,95044.89
2018-09-14T18:58:15.713Z,95045.70
2018-09-14T19:00:44.680Z,95048.30
2018-09-14T19:03:13.471Z,95052.23
2018-09-14T19:05:42.447Z,95058.82
2018-09-14T19:08:11.290Z,95059.52
2018-09-14T19:10:40.193Z,95059.21
2018-09-14T19:13:09.073Z,95058.58
2018-09-14T19:15:37.996Z,95059.03
2018-09-14T19:18:06.876Z,95062.98
2018-09-14T19:20:35.697Z,95062.42
2018-09-14T19:23:04.554Z,95065.81
2018-09-14T19:25:33.366Z,95063.67
2018-09-14T19:28:02.446Z,95065.80
2018-09-14T19:30:31.291Z,95063.39
2018-09-14T19:33:00.165Z,95066.86
2018-09-14T19:35:29.030Z,95070.25
2018-09-14T19:37:58.100Z,95068.34
2018-09-14T19:40:26.950Z,95074.39
2018-09-14T19:42:55.763Z,95070.92
2018-09-14T19:45:24.581Z,95072.58
2018-09-14T19:47:53.389Z,95076.84
2018-09-14T19:50:22.273Z,95070.48
2018-09-14T19:52:51.243Z,95072.17
2018-09-14T19:55:20.316Z,95078.58
2018-09-14T19:57:49.173Z,95068.70
2018-09-14T20:00:18.109Z,95067.02
2018-09-14T20:02:46.981Z,95073.55
2018-09-14T20:05:15.821Z,95074.75
2018-09-14T20:07:45.481Z,95076.67
2018-09-14T20:10:14.429Z,95083.41
2018-09-14T20:12:43.372Z,95079.80
2018-09-14T20:15:12.268Z,95080.84
2018-09-14T20:17:41.264Z,95087.44
2018-09-14T20:20:10.078Z,95081.31
2018-09-14T20:22:39.506Z,95079.36
2018-09-14T20:25:08.344Z,95081.17
2018-09-14T20:27:37.160Z,95089.42
2018-09-14T20:30:13.535Z,95088.09
2018-09-14T20:32:42.312Z,95094.58
2018-09-14T20:35:11.679Z,95087.06
2018-09-14T20:37:40.491Z,95088.63
2018-09-14T20:40:09.513Z,95090.44
2018-09-14T20:42:38.356Z,95092.33
2018-09-14T20:45:07.615Z,95087.00
2018-09-14T20:47:36.505Z,95091.28
2018-09-14T20:50:05.356Z,95079.34
2018-09-14T20:52:34.145Z,95085.22
2018-09-14T20:55:02.968Z,95092.45
2018-09-14T20:57:31.834Z,95083.67
2018-09-14T21:00:00.627Z,95085.84
2018-09-14T21:02:29.463Z,95083.23
2018-09-14T21:04:58.262Z,95083.77
2018-09-14T21:07:27.100Z,95081.11
2018-09-14T21:09:56.094Z,95080.25
2018-09-14T21:12:25.003Z,95082.04
2018-09-14T21:14:53.968Z,95081.64
2018-09-14T21:17:22.919Z,95084.11
2018-09-14T21:19:51.730Z,95084.80
2018-09-14T21:22:20.510Z,95082.66
2018-09-14T21:24:49.304Z,95085.22
2018-09-14T21:27:18.184Z,95082.44
2018-09-14T21:29:47.018Z,95085.48
2018-09-14T21:32:15.869Z,95084.11
2018-09-14T21:34:44.656Z,95080.11
2018-09-14T21:37:13.463Z,95087.11
2018-09-14T21:39:42.258Z,95083.63
2018-09-14T21:42:11.111Z,95082.99
2018-09-14T21:44:39.896Z,95085.05
2018-09-14T21:47:08.944Z,95083.15
2018-09-14T21:49:37.843Z,95090.36
2018-09-14T21:52:07.091Z,95099.83
2018-09-14T21:54:35.928Z,95093.27
2018-09-14T21:57:04.888Z,95101.52
2018-09-14T21:59:33.675Z,95107.34
2018-09-14T22:02:02.478Z,95104.06
2018-09-14T22:04:31.372Z,95108.06
2018-09-14T22:07:00.216Z,95111.09
2018-09-14T22:09:29.043Z,95108.16
2018-09-14T22:11:58.148Z,95107.87
2018-09-14T22:14:26.960Z,95113.17
2018-09-14T22:16:55.807Z,95116.58
2018-09-14T22:19:24.643Z,95117.07
2018-09-14T22:21:53.595Z,95119.61
2018-09-14T22:24:23.414Z,95113.98
2018-09-14T22:26:52.222Z,95117.97
2018-09-14T22:29:21.034Z,95115.55
2018-09-14T22:31:49.818Z,95116.30
2018-09-14T22:34:18.633Z,95114.16
2018-09-14T22:36:47.394Z,95117.62
2018-09-14T22:39:16.233Z,95110.98
2018-09-14T22:41:45.038Z,95112.55
2018-09-14T22:44:13.896Z,95118.25
2018-09-14T22:46:42.708Z,95109.66
2018-09-14T22:49:11.543Z,95106.34
2018-09-14T22:51:40.428Z,95107.03
2018-09-14T22:54:09.212Z,95103.70
2018-09-14T22:56:38.060Z,95107.44
2018-09-14T22:59:06.835Z,95108.77
2018-09-14T23:01:35.719Z,95104.21
2018-09-14T23:04:04.579Z,95111.99
2018-09-14T23:06:33.335Z,95108.66
2018-09-14T23:09:02.122Z,95110.60
2018-09-14T23:11:30.892Z,95112.51
2018-09-14T23:13:59.663Z,95113.61
2018-09-14T23:16:28.461Z,95109.83
2018-09-14T23:18:57.281Z,95112.19
2018-09-14T23:21:26.079Z,95111.19
2018-09-14T23:23:54.910Z,95112.70
2018-09-14T23:26:25.086Z,95115.50
2018-09-14T23:28:53.881Z,95113.38
2018-09-14T23:31:22.685Z,95117.53
2018-09-14T23:33:51.508Z,95114.30
2018-09-14T23:36:20.288Z,95110.48
2018-09-14T23:38:49.138Z,95109.16
2018-09-14T23:41:17.916Z,95113.13
2018-09-14T23:43:46.671Z,95109.64
2018-09-14T23:46:15.513Z,95108.06
2018-09-14T23:48:44.521Z,95113.03
2018-09-14T23:51:13.403Z,95112.34
2018-09-14T23:53:42.151Z,95115.68
2018-09-14T23:56:10.978Z,95113.03
2018-09-14T23:58:39.926Z,95116.27
